Time;durP1;ratioP1;P1;durP2;ratioP2;P2;SDS_P1;SDS_P2;PMS_P1;PMS_P2;Temp;Humidity;BMP_temperature;BMP_pressure;BME280_temperature;BME280_humidity;BME280_pressure;Samples;Min_cycle;Max_cycle;Signal;HPM_P1;HPM_P2
2021/04/15 00:02:06;;;;;;;3.65;0.80;;;6.30;87.90;;;;;;6125927;23;20025;-83
2021/04/15 00:04:32;;;;;;;3.60;1.10;;;6.30;88.00;;;;;;6122608;23;20022;-85
2021/04/15 00:07:04;;;;;;;2.10;0.83;;;6.30;88.00;;;;;;6126904;23;20018;31
2021/04/15 00:09:33;;;;;;;;;;;6.30;88.30;;;;;;6096996;23;20030;-83
2021/04/15 00:12:34;;;;;;;2.35;0.90;;;6.20;86.60;;;;;;6095529;23;19952;-84
2021/04/15 00:15:07;;;;;;;2.50;0.80;;;6.20;88.90;;;;;;6088344;23;20321;-84
2021/04/15 00:17:36;;;;;;;2.25;1.10;;;6.20;88.10;;;;;;6096686;23;20018;-84
2021/04/15 00:20:09;;;;;;;3.63;0.77;;;6.20;87.90;;;;;;6096716;23;20093;-84
2021/04/15 00:22:38;;;;;;;2.28;0.70;;;6.20;88.50;;;;;;6097121;23;20065;-84
2021/04/15 00:25:07;;;;;;;2.83;0.70;;;6.20;88.30;;;;;;6096261;23;20077;-84
2021/04/15 00:27:36;;;;;;;2.67;0.93;;;6.20;88.30;;;;;;6096209;23;20050;-85
2021/04/15 00:30:05;;;;;;;2.90;1.00;;;6.10;88.40;;;;;;6096966;23;20022;-84
2021/04/15 00:32:37;;;;;;;2.00;0.80;;;6.10;88.50;;;;;;6095594;23;20046;-83
2021/04/15 00:35:03;;;;;;;3.50;0.80;;;6.10;88.40;;;;;;6096794;23;20018;-84
2021/04/15 00:37:49;;;;;;;2.40;0.70;;;6.10;88.30;;;;;;6107049;23;20017;-83
2021/04/15 00:40:36;;;;;;;2.58;0.80;;;6.10;88.30;;;;;;6154333;23;20017;-84
2021/04/15 00:47:03;;;;;;;2.20;0.90;;;6.00;88.10;;;;;;6153945;23;20132;-84
2021/04/15 00:49:47;;;;;;;3.88;1.10;;;6.00;88.40;;;;;;6156260;23;20478;-84
2021/04/15 00:52:31;;;;;;;;;;;5.90;89.20;;;;;;6154769;23;20028;-81
2021/04/15 00:55:12;;;;;;;2.53;0.90;;;5.90;86.70;;;;;;6097301;23;20330;-83
2021/04/15 00:57:44;;;;;;;2.38;0.77;;;5.90;88.40;;;;;;6098624;23;20018;-82
2021/04/15 01:00:25;;;;;;;4.13;0.82;;;5.90;88.50;;;;;;6097068;23;20454;-82
2021/04/15 01:03:20;;;;;;;2.70;0.77;;;5.90;88.70;;;;;;6098373;23;20021;-83
2021/04/15 01:06:03;;;;;;;1.98;0.60;;;5.80;88.40;;;;;;6108158;23;20823;-83
2021/04/15 01:08:43;;;;;;;3.17;0.90;;;5.80;88.80;;;;;;6185679;23;20092;-84
2021/04/15 01:12:50;;;;;;;2.05;0.77;;;5.80;88.60;;;;;;6164193;23;20021;-84
2021/04/15 01:15:28;;;;;;;2.47;0.85;;;5.80;88.70;;;;;;6179280;23;20017;-84
2021/04/15 01:18:08;;;;;;;2.45;0.82;;;5.70;88.90;;;;;;6186549;23;20016;-85
2021/04/15 01:21:26;;;;;;;2.28;0.80;;;5.70;88.80;;;;;;6067037;23;20349;-83
2021/04/15 01:24:31;;;;;;;3.45;0.80;;;5.70;89.10;;;;;;6066710;23;20040;-83
2021/04/15 01:27:14;;;;;;;;;;;5.60;89.10;;;;;;6066337;23;20352;-83
2021/04/15 01:30:42;;;;;;;;;;;;;;;;;;;;;
2021/04/15 01:34:11;;;;;;;2.10;0.70;;;5.50;89.40;;;;;;6178974;23;20535;-84
2021/04/15 01:37:31;;;;;;;4.15;0.98;;;5.40;88.40;;;;;;6185618;23;20088;-85
2021/04/15 01:41:04;;;;;;;2.60;1.00;;;5.40;88.50;;;;;;6005344;23;20046;-84
2021/04/15 01:43:54;;;;;;;2.97;1.00;;;5.40;89.00;;;;;;5989999;23;20030;-86
2021/04/15 01:47:04;;;;;;;3.03;0.98;;;5.40;88.80;;;;;;6037570;23;20045;-84
2021/04/15 01:49:56;;;;;;;2.58;0.90;;;5.30;89.10;;;;;;6035382;23;20163;-85
2021/04/15 01:52:26;;;;;;;3.05;1.00;;;5.30;89.10;;;;;;6185826;23;20453;-85
2021/04/15 01:55:03;;;;;;;3.25;0.88;;;5.30;89.20;;;;;;6185323;23;20349;-85
2021/04/15 01:57:45;;;;;;;3.30;1.10;;;5.30;89.20;;;;;;6185210;23;20096;-85
2021/04/15 02:00:32;;;;;;;2.40;0.90;;;5.20;89.20;;;;;;6186204;23;20021;-84
2021/04/15 02:03:13;;;;;;;4.07;1.00;;;5.20;89.10;;;;;;6181968;23;20341;-85
2021/04/15 02:05:43;;;;;;;3.15;0.90;;;5.10;89.20;;;;;;6186105;23;20021;-85
2021/04/15 02:08:17;;;;;;;2.47;0.98;;;5.10;89.20;;;;;;6185214;23;20017;-84
2021/04/15 02:10:50;;;;;;;3.70;1.10;;;5.10;89.30;;;;;;6185670;23;20024;-85
2021/04/15 02:13:44;;;;;;;4.53;1.00;;;5.00;89.10;;;;;;6163584;23;20017;-84
2021/04/15 02:16:18;;;;;;;2.20;0.90;;;5.00;89.00;;;;;;6186083;23;20023;-84
2021/04/15 02:18:57;;;;;;;4.93;1.08;;;4.90;89.00;;;;;;6185292;23;20084;-83
2021/04/15 02:21:43;;;;;;;2.97;0.90;;;4.90;89.40;;;;;;6185878;23;20017;-84
2021/04/15 02:24:36;;;;;;;2.70;1.00;;;4.90;89.20;;;;;;6185895;23;20024;-84
2021/04/15 02:27:17;;;;;;;4.13;1.17;;;4.80;89.20;;;;;;6186099;23;20017;-84
2021/04/15 02:29:49;;;;;;;2.88;0.90;;;4.80;89.40;;;;;;6186286;23;20013;-84
2021/04/15 02:32:35;;;;;;;2.50;1.10;;;4.70;89.40;;;;;;6184847;23;20017;-84
2021/04/15 02:35:26;;;;;;;4.13;1.23;;;4.70;89.40;;;;;;6184497;23;20107;-84
2021/04/15 02:37:58;;;;;;;6.00;1.30;;;4.60;89.10;;;;;;6116712;23;20024;-84
2021/04/15 02:40:28;;;;;;;3.35;0.95;;;4.60;89.40;;;;;;6184978;23;20095;-85
2021/04/15 02:42:59;;;;;;;2.47;1.10;;;4.60;89.40;;;;;;6185972;23;20013;-85
2021/04/15 02:45:36;;;;;;;3.72;1.10;;;4.50;89.70;;;;;;6184339;23;20473;-85
2021/04/15 02:48:24;;;;;;;3.35;1.20;;;4.50;90.20;;;;;;6186224;23;20037;-84
2021/04/15 02:50:57;;;;;;;2.17;1.00;;;4.50;90.10;;;;;;6185739;23;20028;-84
2021/04/15 02:53:37;;;;;;;2.70;1.02;;;4.50;90.20;;;;;;6184479;23;20017;-84
2021/04/15 02:56:19;;;;;;;2.35;1.00;;;4.40;90.20;;;;;;6183663;23;20346;-85
2021/04/15 02:58:50;;;;;;;3.35;1.20;;;4.40;90.10;;;;;;6182320;23;20472;-85
2021/04/15 03:01:21;;;;;;;3.03;1.20;;;4.40;90.20;;;;;;6181922;23;20029;-84
2021/04/15 03:03:49;;;;;;;2.75;1.10;;;4.40;90.30;;;;;;6184549;23;20012;-84
2021/04/15 03:06:24;;;;;;;3.35;1.20;;;4.30;90.30;;;;;;6185164;23;20032;-85
2021/04/15 03:09:00;;;;;;;2.42;1.05;;;4.30;90.30;;;;;;6185145;23;20414;-84
2021/04/15 03:11:45;;;;;;;2.33;1.10;;;4.30;90.30;;;;;;6185291;23;20027;-84
2021/04/15 03:14:34;;;;;;;3.45;1.23;;;4.20;90.20;;;;;;6184616;23;20028;-85
2021/04/15 03:17:03;;;;;;;4.25;1.20;;;4.20;90.10;;;;;;6185807;23;20017;-84
2021/04/15 03:19:50;;;;;;;3.38;1.30;;;4.20;90.20;;;;;;6185198;23;20084;-84
2021/04/15 03:22:29;;;;;;;2.88;1.20;;;4.10;90.20;;;;;;6184561;23;20028;-84
2021/04/15 03:24:59;;;;;;;3.20;1.08;;;4.10;90.30;;;;;;6185404;23;20017;-84
2021/04/15 03:27:35;;;;;;;3.15;1.30;;;4.00;90.20;;;;;;6185041;23;20510;-84
2021/04/15 03:30:11;;;;;;;1.80;1.10;;;4.00;90.20;;;;;;6185755;23;20009;-84
2021/04/15 03:33:06;;;;;;;2.70;1.20;;;4.00;90.40;;;;;;6185602;23;20017;-84
2021/04/15 03:35:40;;;;;;;4.35;1.40;;;4.00;90.50;;;;;;6184362;23;20020;-84
2021/04/15 03:38:29;;;;;;;4.03;1.42;;;3.90;90.60;;;;;;6185227;23;20523;-85
2021/04/15 03:41:19;;;;;;;2.55;1.10;;;3.90;90.60;;;;;;6185761;23;20028;-85
2021/04/15 03:44:08;;;;;;;2.95;1.40;;;3.90;90.40;;;;;;6184843;23;20023;-83
2021/04/15 03:46:39;;;;;;;4.05;1.35;;;3.90;90.40;;;;;;6185374;23;20052;-82
2021/04/15 03:49:28;;;;;;;3.80;1.20;;;3.80;90.30;;;;;;6184580;23;20048;-83
2021/04/15 03:52:00;;;;;;;4.80;1.30;;;3.80;90.20;;;;;;6185700;23;20044;-83
2021/04/15 03:54:42;;;;;;;4.47;1.42;;;3.80;90.20;;;;;;6184592;23;20512;-83
2021/04/15 03:57:14;;;;;;;6.30;1.65;;;3.70;90.20;;;;;;6184445;23;20064;-83
2021/04/15 04:00:11;;;;;;;2.55;1.30;;;3.70;90.20;;;;;;6185782;23;20017;-83
2021/04/15 04:02:55;;;;;;;3.20;1.58;;;3.70;90.60;;;;;;6184966;23;20013;-84
2021/04/15 04:05:56;;;;;;;3.70;1.60;;;3.60;90.20;;;;;;6184243;23;20031;-82
2021/04/15 04:11:26;;;;;;;3.63;1.63;;;3.60;90.20;;;;;;6170714;23;20075;-82
2021/04/15 04:13:57;;;;;;;5.50;1.83;;;3.50;90.20;;;;;;6184898;23;20037;-82
2021/04/15 04:16:35;;;;;;;5.88;1.90;;;3.50;90.30;;;;;;6184496;23;20449;-83
2021/04/15 04:19:21;;;;;;;4.32;2.10;;;3.50;90.50;;;;;;6184331;23;20033;-83
2021/04/15 04:22:18;;;;;;;4.05;1.77;;;3.50;90.50;;;;;;6186320;23;20013;-83
2021/04/15 04:25:02;;;;;;;4.43;2.03;;;3.50;90.40;;;;;;6186454;23;20120;-83
2021/04/15 04:27:34;;;;;;;6.65;2.25;;;3.40;90.50;;;;;;6187235;23;20021;-83
2021/04/15 04:30:08;;;;;;;5.35;2.33;;;3.40;90.40;;;;;;6187467;23;20017;-83
2021/04/15 04:32:34;;;;;;;;;;;3.40;90.60;;;;;;6187038;23;20088;-82
2021/04/15 04:35:02;;;;;;;4.10;1.90;;;3.30;89.40;;;;;;6187203;23;19987;-83
2021/04/15 04:37:39;;;;;;;5.38;2.30;;;3.30;90.50;;;;;;6187104;23;20559;-83
2021/04/15 04:40:16;;;;;;;4.90;2.10;;;3.30;90.70;;;;;;6185795;23;20021;-83
2021/04/15 04:42:59;;;;;;;4.85;1.95;;;3.30;90.90;;;;;;6187345;23;20024;-83
2021/04/15 04:45:26;;;;;;;5.05;2.03;;;3.30;90.90;;;;;;6185996;23;20036;-83
2021/04/15 04:48:32;;;;;;;5.00;2.42;;;3.30;90.80;;;;;;6186977;23;20017;-83
2021/04/15 04:51:09;;;;;;;;;;;3.30;90.70;;;;;;6187492;23;20449;-82
2021/04/15 04:53:38;;;;;;;4.13;2.17;;;3.20;89.50;;;;;;6186084;23;20376;-83
2021/04/15 04:56:12;;;;;;;5.80;2.63;;;3.20;90.50;;;;;;6187414;23;20017;-83
2021/04/15 04:58:39;;;;;;;6.28;2.72;;;3.20;90.70;;;;;;6187434;23;20395;-83
2021/04/15 05:01:10;;;;;;;6.22;2.10;;;3.20;90.70;;;;;;6186164;23;20017;-83
2021/04/15 05:03:38;;;;;;;4.78;2.50;;;3.20;90.80;;;;;;6187364;23;20389;-84
2021/04/15 05:06:07;;;;;;;5.03;2.60;;;3.30;90.80;;;;;;6185435;23;20044;-83
2021/04/15 05:09:02;;;;;;;4.55;2.40;;;3.20;90.80;;;;;;6186498;23;20013;-84
2021/04/15 05:11:33;;;;;;;6.78;2.65;;;3.20;90.80;;;;;;6186920;23;20013;-83
2021/04/15 05:14:05;;;;;;;5.13;2.58;;;3.20;90.80;;;;;;6186072;23;20019;-84
2021/04/15 05:16:55;;;;;;;4.55;2.38;;;3.20;90.60;;;;;;6185900;23;20349;-84
2021/04/15 05:19:21;;;;;;;7.28;3.00;;;3.10;90.50;;;;;;6185927;23;20064;-84
2021/04/15 05:21:49;;;;;;;6.47;3.17;;;3.10;90.60;;;;;;6186245;23;20342;-84
2021/04/15 05:24:24;;;;;;;4.90;2.45;;;3.10;91.00;;;;;;6187200;23;20017;-83
2021/04/15 05:26:53;;;;;;;6.43;2.70;;;3.10;90.70;;;;;;6187869;23;20025;-83
2021/04/15 05:29:28;;;;;;;5.57;3.10;;;3.10;90.50;;;;;;6184922;23;20095;-84
2021/04/15 05:31:58;;;;;;;6.65;2.85;;;3.00;90.50;;;;;;6186413;23;20028;-83
2021/04/15 05:34:35;;;;;;;7.53;2.45;;;3.00;90.50;;;;;;6183821;23;20093;-84
2021/04/15 05:37:08;;;;;;;4.70;2.63;;;3.00;90.50;;;;;;6186346;23;20021;-83
2021/04/15 05:40:33;;;;;;;5.82;2.97;;;3.00;90.50;;;;;;6161500;23;20033;-85
2021/04/15 05:43:39;;;;;;;6.43;3.42;;;2.90;90.40;;;;;;6126393;23;20076;-85
2021/04/15 05:46:47;;;;;;;5.75;2.83;;;2.90;90.40;;;;;;6123693;23;20027;-85
2021/04/15 05:49:48;;;;;;;5.47;2.88;;;2.90;90.50;;;;;;6125052;23;20435;-83
2021/04/15 05:52:32;;;;;;;5.60;2.65;;;2.80;90.30;;;;;;6106771;23;20454;-81
2021/04/15 05:55:04;;;;;;;5.38;2.70;;;2.80;90.40;;;;;;6115221;23;20663;-81
2021/04/15 05:57:35;;;;;;;5.90;3.30;;;2.80;90.40;;;;;;6120158;23;20014;-83
2021/04/15 06:00:20;;;;;;;6.35;3.10;;;2.90;90.50;;;;;;6123761;23;20021;-81
2021/04/15 06:03:15;;;;;;;6.63;3.00;;;2.80;90.50;;;;;;6124898;23;20021;-81
2021/04/15 06:06:21;;;;;;;5.28;2.92;;;2.90;90.50;;;;;;6126105;23;20025;-80
2021/04/15 06:08:59;;;;;;;5.82;3.47;;;2.90;90.50;;;;;;6126380;23;20060;-82
2021/04/15 06:11:44;;;;;;;6.60;3.17;;;2.90;90.50;;;;;;6122447;23;20025;-81
2021/04/15 06:14:22;;;;;;;6.63;3.33;;;2.90;90.50;;;;;;6124394;23;20454;-80
2021/04/15 06:17:11;;;;;;;6.70;3.40;;;3.00;90.70;;;;;;6124216;23;20080;-80
2021/04/15 06:19:39;;;;;;;5.93;2.97;;;3.00;90.70;;;;;;6116171;23;20454;-82
2021/04/15 06:22:17;;;;;;;5.75;2.88;;;3.10;90.60;;;;;;6124649;23;20022;-80
2021/04/15 06:24:45;;;;;;;7.13;3.33;;;3.10;90.60;;;;;;6123435;23;20057;-79
2021/04/15 06:27:12;;;;;;;6.95;2.97;;;3.10;90.50;;;;;;6126615;23;20041;-80
2021/04/15 06:29:45;;;;;;;8.98;3.85;;;3.20;90.50;;;;;;6127075;23;20013;-83
2021/04/15 06:32:18;;;;;;;6.63;3.23;;;3.30;90.60;;;;;;6125990;23;20026;-81
2021/04/15 06:34:44;;;;;;;;;;;3.40;90.50;;;;;;6127175;23;20439;-80
2021/04/15 06:37:19;;;;;;;6.80;3.60;;;3.30;90.10;;;;;;6126480;23;19975;-81
2021/04/15 06:40:10;;;;;;;12.32;4.00;;;3.40;90.40;;;;;;6125673;23;20026;-81
2021/04/15 06:42:41;;;;;;;8.98;4.15;;;3.50;90.40;;;;;;6126530;23;20089;-82
2021/04/15 06:45:36;;;;;;;8.48;3.30;;;3.50;90.40;;;;;;6125289;23;20022;-80
2021/04/15 06:48:34;;;;;;;9.45;3.50;;;3.60;90.40;;;;;;6125628;23;20069;-80
2021/04/15 06:51:32;;;;;;;7.20;3.30;;;3.70;90.40;;;;;;6125326;23;20020;-80
2021/04/15 06:54:28;;;;;;;6.80;3.03;;;3.80;90.40;;;;;;6125720;23;20050;-80
2021/04/15 06:57:22;;;;;;;5.97;3.20;;;3.80;90.30;;;;;;6126915;23;20018;-80
2021/04/15 07:00:17;;;;;;;7.50;3.33;;;3.90;90.30;;;;;;6125614;23;20041;-81
2021/04/15 07:02:57;;;;;;;7.93;3.17;;;4.00;90.30;;;;;;6104583;23;20026;-80
2021/04/15 07:05:29;;;;;;;7.30;3.10;;;4.10;90.40;;;;;;6125766;23;20025;-82
2021/04/15 07:08:06;;;;;;;5.20;2.80;;;4.20;90.30;;;;;;6110529;23;20408;-80
2021/04/15 07:11:22;;;;;;;5.40;2.97;;;4.30;90.30;;;;;;6122028;23;20057;-81
2021/04/15 07:14:12;;;;;;;9.80;2.90;;;4.40;90.20;;;;;;6125102;23;20026;-80
2021/04/15 07:17:00;;;;;;;13.25;2.90;;;4.50;90.30;;;;;;6125457;23;20021;-81
2021/04/15 07:19:40;;;;;;;8.30;2.88;;;4.60;90.30;;;;;;6124464;23;20092;-81
2021/04/15 07:22:25;;;;;;;8.90;3.10;;;4.70;90.30;;;;;;6125173;23;20443;-80
2021/04/15 07:24:55;;;;;;;8.40;2.95;;;4.80;90.20;;;;;;6125670;23;20046;-81
2021/04/15 07:27:56;;;;;;;6.60;2.63;;;4.90;90.20;;;;;;6124111;23;20021;-81
2021/04/15 07:30:54;;;;;;;8.23;2.90;;;5.10;90.10;;;;;;6125933;23;20025;-81
2021/04/15 07:33:30;;;;;;;7.82;3.17;;;5.20;89.80;;;;;;6125699;23;20025;-81
2021/04/15 07:36:25;;;;;;;5.88;2.90;;;5.30;90.00;;;;;;6124996;23;20050;-81
2021/04/15 07:39:09;;;;;;;7.30;3.00;;;5.40;89.90;;;;;;6125089;23;20382;-81
2021/04/15 07:42:01;;;;;;;9.57;3.33;;;5.50;90.00;;;;;;6125177;23;20049;-81
2021/04/15 07:44:38;;;;;;;8.75;2.85;;;5.60;90.00;;;;;;6125389;23;20353;-82
2021/04/15 07:47:43;;;;;;;8.98;3.33;;;5.70;89.70;;;;;;6125404;23;20077;-81
2021/04/15 07:50:26;;;;;;;6.28;2.75;;;5.80;89.40;;;;;;6125470;23;20018;-82
2021/04/15 07:53:18;;;;;;;8.20;2.80;;;5.90;89.60;;;;;;6125882;23;20018;-82
2021/04/15 07:55:58;;;;;;;8.88;2.90;;;5.90;89.50;;;;;;6120920;23;20092;-81
2021/04/15 07:58:54;;;;;;;8.55;2.88;;;6.00;89.30;;;;;;6116524;23;20036;-81
2021/04/15 08:01:41;;;;;;;9.48;3.30;;;6.10;89.40;;;;;;6124530;23;20352;-81
2021/04/15 08:04:26;;;;;;;11.38;3.20;;;6.10;89.50;;;;;;6123885;23;20022;-80
2021/04/15 08:07:30;;;;;;;8.85;3.05;;;6.20;89.40;;;;;;6120555;23;20026;-82
2021/04/15 08:10:31;;;;;;;6.53;3.10;;;6.30;89.10;;;;;;6124437;23;20509;-81
2021/04/15 08:13:33;;;;;;;11.63;3.20;;;6.30;89.10;;;;;;6125536;23;20022;-81
2021/04/15 08:16:33;;;;;;;6.78;2.88;;;6.30;89.00;;;;;;6124655;23;20097;-81
2021/04/15 08:19:22;;;;;;;7.90;2.83;;;6.40;88.90;;;;;;6124288;23;20092;-80
2021/04/15 08:21:56;;;;;;;6.65;2.65;;;6.50;89.70;;;;;;6115407;23;20467;-78
2021/04/15 08:24:41;;;;;;;9.43;2.97;;;6.60;89.00;;;;;;6110231;23;20494;-78
2021/04/15 08:27:24;;;;;;;7.70;3.10;;;6.70;88.80;;;;;;6112839;23;20320;-80
2021/04/15 08:30:02;;;;;;;8.75;3.33;;;6.90;88.70;;;;;;6125390;23;20037;-81
2021/04/15 08:32:39;;;;;;;7.20;2.75;;;7.00;88.70;;;;;;6124100;23;20354;-80
2021/04/15 08:35:11;;;;;;;9.23;2.80;;;7.10;88.80;;;;;;6125207;23;20018;-79
2021/04/15 08:37:39;;;;;;;10.98;3.10;;;7.10;88.70;;;;;;6124118;23;20018;-81
2021/04/15 08:40:28;;;;;;;6.68;2.85;;;7.20;88.50;;;;;;6124281;23;20026;-80
2021/04/15 08:42:59;;;;;;;8.05;2.72;;;7.40;88.10;;;;;;6125259;23;20025;-81
2021/04/15 08:45:51;;;;;;;8.98;2.70;;;7.50;88.10;;;;;;6123797;23;20018;-81
2021/04/15 08:48:40;;;;;;;6.43;2.70;;;7.60;87.80;;;;;;6124755;23;20018;-81
2021/04/15 08:51:33;;;;;;;7.63;2.63;;;7.70;87.20;;;;;;6124666;23;20089;-82
2021/04/15 08:54:17;;;;;;;6.07;2.85;;;7.80;87.20;;;;;;6124941;23;20056;-80
2021/04/15 08:56:58;;;;;;;7.32;2.85;;;7.90;87.30;;;;;;6124919;23;20127;-83
2021/04/15 08:59:45;;;;;;;8.30;2.85;;;7.90;87.40;;;;;;6119590;23;20025;-83
2021/04/15 09:02:30;;;;;;;6.75;2.75;;;8.00;87.60;;;;;;6123937;23;20458;-83
2021/04/15 09:05:20;;;;;;;8.75;2.95;;;8.10;87.40;;;;;;6124499;23;20086;-81
2021/04/15 09:07:59;;;;;;;9.32;2.85;;;8.20;87.30;;;;;;6125045;23;20089;-83
2021/04/15 09:10:59;;;;;;;6.28;2.78;;;8.20;87.50;;;;;;6126700;23;20060;-81
2021/04/15 09:13:52;;;;;;;7.28;3.00;;;8.30;87.30;;;;;;6109877;23;20017;-83
2021/04/15 09:16:34;;;;;;;6.47;2.58;;;8.50;87.50;;;;;;6126390;23;20538;-82
2021/04/15 09:19:06;;;;;;;6.70;2.80;;;8.60;87.50;;;;;;6126852;23;20371;-82
2021/04/15 09:21:55;;;;;;;13.32;3.45;;;8.60;87.10;;;;;;6125450;23;20368;-82
2021/04/15 09:25:04;;;;;;;10.15;2.80;;;8.70;86.70;;;;;;6126322;23;20026;-82
2021/04/15 09:27:50;;;;;;;9.80;2.70;;;8.90;86.70;;;;;;6121136;23;20018;-83
2021/04/15 09:30:45;;;;;;;7.97;2.63;;;9.00;86.90;;;;;;6124811;23;20017;-80
2021/04/15 09:33:42;;;;;;;11.48;2.20;;;9.10;86.50;;;;;;6125978;23;20073;-80
2021/04/15 09:36:28;;;;;;;10.98;2.80;;;9.20;85.10;;;;;;6126500;23;20018;-81
2021/04/15 09:39:25;;;;;;;7.22;2.40;;;9.20;84.90;;;;;;6126144;23;20038;-81
2021/04/15 09:42:16;;;;;;;5.53;2.22;;;9.40;85.30;;;;;;6125155;23;20022;-80
2021/04/15 09:44:52;;;;;;;7.25;2.70;;;9.40;84.50;;;;;;6126809;23;20089;-81
2021/04/15 09:47:44;;;;;;;8.20;1.95;;;9.50;84.30;;;;;;6124925;23;20022;-81
2021/04/15 09:50:18;;;;;;;6.25;2.50;;;9.60;83.00;;;;;;6126234;23;20014;-83
2021/04/15 09:53:01;;;;;;;9.40;2.33;;;9.60;83.70;;;;;;6126626;23;20018;-81
2021/04/15 09:55:52;;;;;;;6.82;2.13;;;9.70;82.60;;;;;;6124791;23;20104;-80
2021/04/15 09:58:29;;;;;;;6.15;2.30;;;9.80;81.90;;;;;;6126076;23;20161;-80
2021/04/15 10:01:03;;;;;;;5.68;2.30;;;9.80;82.60;;;;;;6123434;23;20022;-80
2021/04/15 10:03:48;;;;;;;6.05;1.92;;;9.90;83.60;;;;;;6124617;23;20024;-80
2021/04/15 10:06:27;;;;;;;5.55;2.03;;;9.90;83.30;;;;;;6124794;23;20481;-80
2021/04/15 10:09:09;;;;;;;5.70;2.22;;;10.00;84.00;;;;;;6116461;23;20092;-80
2021/04/15 10:11:50;;;;;;;7.35;2.08;;;10.10;84.20;;;;;;6124564;23;20480;-80
2021/04/15 10:14:48;;;;;;;5.70;2.00;;;10.10;84.00;;;;;;6124601;23;20890;-81
2021/04/15 10:17:32;;;;;;;7.32;1.95;;;10.20;83.50;;;;;;6124052;23;20486;-80
2021/04/15 10:20:32;;;;;;;7.43;1.60;;;10.30;83.30;;;;;;6126386;23;20014;-80
2021/04/15 10:23:01;;;;;;;6.13;1.83;;;10.30;81.60;;;;;;6125224;23;20025;-80
2021/04/15 10:25:36;;;;;;;4.15;1.70;;;10.40;82.20;;;;;;6125914;23;20021;-80
2021/04/15 10:28:31;;;;;;;5.70;1.90;;;10.40;83.00;;;;;;6126634;23;20084;-80
2021/04/15 10:31:24;;;;;;;5.32;1.80;;;10.50;82.80;;;;;;6125590;23;20076;-80
2021/04/15 10:34:20;;;;;;;4.90;1.55;;;10.60;82.70;;;;;;6126019;23;20029;-79
2021/04/15 10:36:50;;;;;;;5.10;1.73;;;10.70;82.70;;;;;;6124857;23;20017;-79
2021/04/15 10:40:10;;;;;;;4.78;1.60;;;10.80;82.90;;;;;;6125122;23;20022;-80
2021/04/15 10:43:13;;;;;;;4.38;1.60;;;10.80;82.70;;;;;;6064953;23;20026;-79
2021/04/15 10:45:57;;;;;;;4.63;1.45;;;10.90;82.70;;;;;;6056500;23;20019;-80
2021/04/15 10:48:44;;;;;;;5.63;1.65;;;11.00;82.50;;;;;;6116702;23;20454;-79
2021/04/15 10:51:28;;;;;;;6.53;1.52;;;11.00;81.70;;;;;;6124905;23;20022;-79
2021/04/15 10:53:57;;;;;;;3.90;1.52;;;11.10;81.70;;;;;;6126213;23;20033;-80
2021/04/15 10:56:23;;;;;;;4.72;1.52;;;11.10;81.40;;;;;;6125709;23;20032;-80
2021/04/15 10:58:53;;;;;;;5.35;1.70;;;11.20;81.50;;;;;;6125060;23;20041;-79
2021/04/15 11:01:39;;;;;;;5.40;1.50;;;11.20;81.60;;;;;;6125930;23;20018;-78
2021/04/15 11:04:07;;;;;;;5.38;1.42;;;11.20;80.10;;;;;;6125330;23;20014;-80
2021/04/15 11:06:44;;;;;;;5.47;1.80;;;11.00;76.90;;;;;;6115330;23;20036;-77
2021/04/15 11:09:19;;;;;;;4.93;1.42;;;11.00;76.40;;;;;;6116500;23;20036;-77
2021/04/15 11:12:00;;;;;;;6.22;1.55;;;11.10;78.30;;;;;;6122816;23;20121;-77
2021/04/15 11:14:35;;;;;;;4.40;1.38;;;11.10;79.20;;;;;;6124381;23;20021;-79
2021/04/15 11:17:04;;;;;;;3.60;1.35;;;11.20;78.80;;;;;;6124663;23;20538;-78
2021/04/15 11:19:34;;;;;;;4.15;1.50;;;11.20;79.40;;;;;;6124740;23;20018;-79
2021/04/15 11:22:39;;;;;;;3.85;1.23;;;11.20;79.20;;;;;;6125624;23;20100;-79
2021/04/15 11:25:43;;;;;;;3.87;1.33;;;11.30;79.50;;;;;;6125892;23;20022;-81
2021/04/15 11:28:23;;;;;;;4.43;1.55;;;11.30;79.50;;;;;;6125656;23;20145;-80
2021/04/15 11:31:11;;;;;;;4.43;1.60;;;11.40;79.00;;;;;;6125852;23;20033;-80
2021/04/15 11:33:47;;;;;;;3.83;1.40;;;11.40;78.00;;;;;;6105292;23;20347;-79
2021/04/15 11:36:34;;;;;;;4.90;1.80;;;11.40;77.10;;;;;;6125777;23;20045;-80
2021/04/15 11:39:43;;;;;;;3.38;1.27;;;11.40;77.30;;;;;;6117039;23;20104;-81
2021/04/15 11:42:18;;;;;;;4.85;1.63;;;11.40;77.90;;;;;;6107468;23;20375;-79
2021/04/15 11:45:02;;;;;;;5.85;1.88;;;11.50;78.70;;;;;;6125080;23;20025;-80
2021/04/15 11:47:34;;;;;;;4.35;1.60;;;11.50;78.80;;;;;;6124427;23;20068;-79
2021/04/15 11:50:23;;;;;;;3.78;1.35;;;11.50;79.10;;;;;;6117235;23;20018;-81
2021/04/15 11:53:37;;;;;;;4.38;1.55;;;11.60;78.70;;;;;;6124773;23;20101;-80
2021/04/15 11:56:32;;;;;;;5.40;1.48;;;11.50;75.80;;;;;;6124692;23;20026;-81
2021/04/15 11:59:18;;;;;;;4.30;1.50;;;11.50;76.20;;;;;;6125330;23;20042;-81
2021/04/15 12:01:49;;;;;;;2.80;1.15;;;11.50;77.70;;;;;;6123555;23;20029;-80
2021/04/15 12:04:27;;;;;;;4.95;1.60;;;11.60;78.10;;;;;;6125456;23;20050;-81
2021/04/15 12:07:12;;;;;;;3.85;1.58;;;11.70;77.60;;;;;;6125059;23;20022;-81
2021/04/15 12:09:38;;;;;;;3.35;1.45;;;11.80;78.10;;;;;;6124643;23;20018;-82
2021/04/15 12:12:24;;;;;;;3.95;1.60;;;11.80;76.90;;;;;;6125262;23;20385;-81
2021/04/15 12:14:50;;;;;;;5.80;1.60;;;11.90;74.70;;;;;;6124788;23;20014;-81
2021/04/15 12:17:48;;;;;;;4.13;1.60;;;11.90;75.80;;;;;;6134116;23;20082;-81
2021/04/15 12:20:51;;;;;;;;;;;;;;;;;;;;;
2021/04/15 12:24:07;;;;;;;5.38;1.55;;;12.00;74.30;;;;;;6180869;23;20458;-80
2021/04/15 12:27:11;;;;;;;4.35;1.50;;;12.00;74.20;;;;;;6183847;23;20084;-81
2021/04/15 12:29:59;;;;;;;4.20;1.45;;;12.00;75.50;;;;;;6182638;23;20111;-81
2021/04/15 12:32:46;;;;;;;4.78;1.42;;;12.10;76.00;;;;;;6180536;23;20013;-80
2021/04/15 12:35:55;;;;;;;3.90;1.35;;;12.20;75.50;;;;;;6184376;23;20017;-81
2021/04/15 12:39:06;;;;;;;3.38;1.30;;;12.20;75.50;;;;;;6183175;23;20048;-81
2021/04/15 12:41:57;;;;;;;5.57;1.40;;;12.20;72.50;;;;;;6184867;23;20477;-81
2021/04/15 12:44:32;;;;;;;6.82;1.10;;;12.10;65.80;;;;;;6185915;23;20069;-81
2021/04/15 12:47:53;;;;;;;4.07;1.13;;;12.10;65.70;;;;;;6186321;23;20017;-81
2021/04/15 12:50:29;;;;;;;5.25;1.25;;;12.00;60.90;;;;;;6184468;23;20021;-81
2021/04/15 12:53:32;;;;;;;3.22;1.30;;;12.00;66.70;;;;;;6184712;23;20353;-81
2021/04/15 12:56:04;;;;;;;5.38;1.25;;;12.00;66.70;;;;;;6185317;23;20358;-81
2021/04/15 12:58:33;;;;;;;3.72;1.27;;;11.90;67.40;;;;;;6184725;23;20445;-82
2021/04/15 13:01:13;;;;;;;3.75;1.15;;;12.00;69.20;;;;;;6183400;23;20138;-81
2021/04/15 13:07:52;;;;;;;3.45;1.23;;;12.10;70.30;;;;;;6085325;23;20014;-79
2021/04/15 13:10:21;;;;;;;3.00;1.15;;;12.20;72.30;;;;;;6094305;23;20042;-79
2021/04/15 13:13:09;;;;;;;3.05;1.30;;;12.20;72.50;;;;;;6094488;23;20383;-80
2021/04/15 13:15:47;;;;;;;2.42;1.10;;;12.30;72.80;;;;;;6095474;23;20019;-79
2021/04/15 13:18:51;;;;;;;3.95;1.33;;;12.40;74.40;;;;;;6159404;23;20021;-80
2021/04/15 13:21:35;;;;;;;4.17;1.30;;;12.50;74.90;;;;;;6186278;23;20033;-79
2021/04/15 13:24:39;;;;;;;3.88;1.20;;;12.50;76.30;;;;;;6185484;23;20024;-78
2021/04/15 13:27:35;;;;;;;2.05;1.13;;;12.50;75.20;;;;;;6184326;23;20079;-80
2021/04/15 13:30:19;;;;;;;3.55;1.40;;;12.60;75.20;;;;;;6185620;23;20017;-80
2021/04/15 13:33:08;;;;;;;3.33;1.27;;;12.70;76.00;;;;;;6185144;23;20049;-79
2021/04/15 13:36:00;;;;;;;5.03;1.20;;;12.70;74.00;;;;;;6185855;23;20013;-80
2021/04/15 13:38:32;;;;;;;6.65;1.60;;;12.80;74.00;;;;;;6180903;23;20021;-79
2021/04/15 13:40:59;;;;;;;3.42;1.30;;;12.70;72.20;;;;;;6180163;23;20047;-80
2021/04/15 13:43:46;;;;;;;4.43;1.65;;;12.80;73.30;;;;;;6184768;23;20024;-80
2021/04/15 13:46:41;;;;;;;4.53;1.60;;;12.80;72.90;;;;;;6185532;23;20092;-80
2021/04/15 13:49:12;;;;;;;5.20;1.77;;;12.80;72.70;;;;;;6184589;23;20071;-80
2021/04/15 13:52:08;;;;;;;3.97;1.30;;;12.80;72.90;;;;;;6185740;23;20461;-80
2021/04/15 13:54:39;;;;;;;4.60;1.45;;;12.80;73.20;;;;;;6184707;23;20020;-80
2021/04/15 13:57:26;;;;;;;5.75;1.60;;;12.90;72.60;;;;;;6185406;23;20021;-80
2021/04/15 13:59:54;;;;;;;4.50;1.77;;;12.90;72.50;;;;;;6185569;23;20028;-80
2021/04/15 14:02:20;;;;;;;4.45;1.50;;;12.90;71.80;;;;;;6184043;23;20014;-80
2021/04/15 14:05:03;;;;;;;4.25;1.60;;;12.90;72.10;;;;;;6185346;23;20021;-80
2021/04/15 14:07:33;;;;;;;5.20;1.80;;;12.90;72.50;;;;;;6184140;23;20315;-81
2021/04/15 14:10:05;;;;;;;4.57;1.63;;;12.90;71.90;;;;;;6185869;23;20013;-80
2021/04/15 14:12:40;;;;;;;4.35;1.83;;;12.90;72.40;;;;;;6184884;23;20027;-80
2021/04/15 14:15:31;;;;;;;5.70;1.88;;;12.90;73.20;;;;;;6179896;23;20550;-79
2021/04/15 14:18:21;;;;;;;4.50;1.60;;;12.90;72.70;;;;;;6181233;23;20029;-80
2021/04/15 14:20:56;;;;;;;4.70;2.00;;;12.90;73.50;;;;;;6185430;23;20088;-80
2021/04/15 14:23:28;;;;;;;;;;;13.00;72.30;;;;;;6184691;23;20032;-80
2021/04/15 14:26:21;;;;;;;6.15;2.08;;;12.90;73.90;;;;;;6185806;23;19920;-80
2021/04/15 14:28:49;;;;;;;5.53;2.00;;;13.00;73.90;;;;;;6184739;23;20107;-80
2021/04/15 14:31:28;;;;;;;5.50;2.17;;;12.90;71.80;;;;;;6185533;23;20048;-81
2021/04/15 14:33:55;;;;;;;6.63;2.55;;;12.90;73.90;;;;;;6185646;23;20051;-82
2021/04/15 14:36:29;;;;;;;4.90;2.25;;;12.90;71.40;;;;;;6156995;23;20350;-82